sensor_id;sensor_type;location;lat;lon;timestamp;pressure;altitude;pressure_sealevel;temperature;humidity
41044;BME280;51680;49.806;18.774;2023-07-09T00:00:48;97805.53;;;20.72;47.78
41044;BME280;51680;49.806;18.774;2023-07-09T00:03:50;97801.50;;;20.68;47.69
41044;BME280;51680;49.806;18.774;2023-07-09T00:06:54;97809.31;;;20.70;47.67
41044;BME280;51680;49.806;18.774;2023-07-09T00:10:20;97805.69;;;20.71;47.69
41044;BME280;51680;49.806;18.774;2023-07-09T00:13:22;97805.53;;;20.72;47.05
41044;BME280;51680;49.806;18.774;2023-07-09T00:16:25;97805.06;;;20.77;46.90
41044;BME280;51680;49.806;18.774;2023-07-09T00:19:27;97803.94;;;20.79;46.91
41044;BME280;51680;49.806;18.774;2023-07-09T00:22:29;97802.25;;;20.78;46.86
41044;BME280;51680;49.806;18.774;2023-07-09T00:25:33;97803.94;;;20.79;46.77
41044;BME280;51680;49.806;18.774;2023-07-09T00:28:36;97805.75;;;20.79;46.52
41044;BME280;51680;49.806;18.774;2023-07-09T00:31:38;97805.44;;;20.82;46.36
41044;BME280;51680;49.806;18.774;2023-07-09T00:34:43;97799.19;;;20.83;46.25
41044;BME280;51680;49.806;18.774;2023-07-09T00:37:48;97807.81;;;20.85;46.05
41044;BME280;51680;49.806;18.774;2023-07-09T00:41:00;97799.84;;;20.85;46.37
41044;BME280;51680;49.806;18.774;2023-07-09T00:44:23;97801.13;;;20.81;45.94
41044;BME280;51680;49.806;18.774;2023-07-09T00:47:29;97804.16;;;20.86;46.22
41044;BME280;51680;49.806;18.774;2023-07-09T00:50:35;97813.16;;;21.02;46.47
41044;BME280;51680;49.806;18.774;2023-07-09T00:53:43;97803.28;;;21.12;46.29
41044;BME280;51680;49.806;18.774;2023-07-09T00:56:50;97795.38;;;21.20;46.14
41044;BME280;51680;49.806;18.774;2023-07-09T01:00:07;97795.63;;;21.09;46.72
41044;BME280;51680;49.806;18.774;2023-07-09T01:03:15;97783.19;;;20.92;46.74
41044;BME280;51680;49.806;18.774;2023-07-09T01:06:25;97780.97;;;20.88;46.89
41044;BME280;51680;49.806;18.774;2023-07-09T01:09:30;97784.38;;;20.80;47.04
41044;BME280;51680;49.806;18.774;2023-07-09T01:12:37;97788.84;;;20.80;47.20
41044;BME280;51680;49.806;18.774;2023-07-09T01:15:39;97794.44;;;20.77;47.17
41044;BME280;51680;49.806;18.774;2023-07-09T01:18:41;97797.84;;;20.69;47.64
41044;BME280;51680;49.806;18.774;2023-07-09T01:21:45;97798.94;;;20.59;48.15
41044;BME280;51680;49.806;18.774;2023-07-09T01:24:50;97800.88;;;20.57;48.09
41044;BME280;51680;49.806;18.774;2023-07-09T01:27:53;97796.03;;;20.52;48.03
41044;BME280;51680;49.806;18.774;2023-07-09T01:30:55;97810.56;;;20.48;48.02
41044;BME280;51680;49.806;18.774;2023-07-09T01:33:57;97800.56;;;20.42;48.38
41044;BME280;51680;49.806;18.774;2023-07-09T01:37:00;97803.91;;;20.44;48.45
41044;BME280;51680;49.806;18.774;2023-07-09T01:40:03;97800.63;;;20.50;48.08
41044;BME280;51680;49.806;18.774;2023-07-09T01:43:06;97805.81;;;20.52;47.88
41044;BME280;51680;49.806;18.774;2023-07-09T01:46:09;97810.81;;;20.55;47.92
41044;BME280;51680;49.806;18.774;2023-07-09T01:49:12;97801.50;;;20.68;47.23
41044;BME280;51680;49.806;18.774;2023-07-09T01:52:18;97809.31;;;20.87;47.04
41044;BME280;51680;49.806;18.774;2023-07-09T01:55:20;97812.16;;;21.03;46.66
41044;BME280;51680;49.806;18.774;2023-07-09T01:58:22;97808.44;;;21.14;46.17
41044;BME280;51680;49.806;18.774;2023-07-09T02:01:26;97815.34;;;21.24;45.67
41044;BME280;51680;49.806;18.774;2023-07-09T02:04:28;97811.91;;;21.32;45.47
41044;BME280;51680;49.806;18.774;2023-07-09T02:07:34;97811.91;;;21.32;45.72
41044;BME280;51680;49.806;18.774;2023-07-09T02:10:35;97814.25;;;21.35;45.40
41044;BME280;51680;49.806;18.774;2023-07-09T02:13:38;97817.59;;;21.37;45.91
41044;BME280;51680;49.806;18.774;2023-07-09T02:16:40;97817.22;;;21.32;46.27
41044;BME280;51680;49.806;18.774;2023-07-09T02:19:42;97819.50;;;21.27;46.58
41044;BME280;51680;49.806;18.774;2023-07-09T02:22:46;97825.75;;;21.18;47.06
41044;BME280;51680;49.806;18.774;2023-07-09T02:25:47;97830.59;;;21.05;47.66
41044;BME280;51680;49.806;18.774;2023-07-09T02:28:49;97831.50;;;20.96;48.18
41044;BME280;51680;49.806;18.774;2023-07-09T02:31:52;97828.56;;;20.89;48.38
41044;BME280;51680;49.806;18.774;2023-07-09T02:34:55;97832.75;;;20.74;49.36
41044;BME280;51680;49.806;18.774;2023-07-09T02:37:58;97841.00;;;20.54;50.56
41044;BME280;51680;49.806;18.774;2023-07-09T02:41:00;97837.75;;;20.33;51.79
41044;BME280;51680;49.806;18.774;2023-07-09T02:44:02;97842.31;;;20.13;52.73
41044;BME280;51680;49.806;18.774;2023-07-09T02:47:04;97850.84;;;19.98;53.19
41044;BME280;51680;49.806;18.774;2023-07-09T02:50:06;97849.06;;;19.89;52.10
41044;BME280;51680;49.806;18.774;2023-07-09T02:53:09;97847.13;;;19.81;51.58
41044;BME280;51680;49.806;18.774;2023-07-09T02:56:11;97845.47;;;19.80;51.05
41044;BME280;51680;49.806;18.774;2023-07-09T02:59:13;97840.56;;;19.85;50.59
41044;BME280;51680;49.806;18.774;2023-07-09T03:02:14;97844.59;;;19.89;50.53
41044;BME280;51680;49.806;18.774;2023-07-09T03:05:16;97847.38;;;19.88;50.63
41044;BME280;51680;49.806;18.774;2023-07-09T03:08:19;97853.19;;;20.01;50.29
41044;BME280;51680;49.806;18.774;2023-07-09T03:11:21;97842.59;;;20.01;50.38
41044;BME280;51680;49.806;18.774;2023-07-09T03:14:23;97852.66;;;19.97;50.61
41044;BME280;51680;49.806;18.774;2023-07-09T03:17:25;97855.75;;;19.93;50.84
41044;BME280;51680;49.806;18.774;2023-07-09T03:20:26;97859.50;;;19.90;50.93
41044;BME280;51680;49.806;18.774;2023-07-09T03:23:30;97856.59;;;19.84;51.69
41044;BME280;51680;49.806;18.774;2023-07-09T03:26:32;97856.59;;;19.84;51.34
41044;BME280;51680;49.806;18.774;2023-07-09T03:29:33;97859.94;;;19.86;51.38
41044;BME280;51680;49.806;18.774;2023-07-09T03:32:35;97861.44;;;19.98;51.03
41044;BME280;51680;49.806;18.774;2023-07-09T03:35:37;97859.88;;;20.05;51.05
41044;BME280;51680;49.806;18.774;2023-07-09T03:38:41;97852.34;;;20.10;50.85
41044;BME280;51680;49.806;18.774;2023-07-09T03:41:42;97859.75;;;20.16;50.77
41044;BME280;51680;49.806;18.774;2023-07-09T03:44:44;97854.34;;;20.35;50.06
41044;BME280;51680;49.806;18.774;2023-07-09T03:47:46;97852.50;;;20.45;50.40
41044;BME280;51680;49.806;18.774;2023-07-09T03:50:48;97846.59;;;20.51;50.32
41044;BME280;51680;49.806;18.774;2023-07-09T03:53:51;97850.69;;;20.63;50.29
41044;BME280;51680;49.806;18.774;2023-07-09T03:56:52;97844.50;;;20.72;49.84
41044;BME280;51680;49.806;18.774;2023-07-09T03:59:54;97839.94;;;20.82;49.82
41044;BME280;51680;49.806;18.774;2023-07-09T04:02:56;97846.06;;;20.92;49.74
41044;BME280;51680;49.806;18.774;2023-07-09T04:05:58;97849.69;;;21.08;49.48
41044;BME280;51680;49.806;18.774;2023-07-09T04:09:01;97849.03;;;21.24;49.18
41044;BME280;51680;49.806;18.774;2023-07-09T04:12:03;97850.84;;;21.41;48.96
41044;BME280;51680;49.806;18.774;2023-07-09T04:15:06;97856.81;;;21.60;48.63
41044;BME280;51680;49.806;18.774;2023-07-09T04:18:08;97856.19;;;21.84;48.16
41044;BME280;51680;49.806;18.774;2023-07-09T04:21:10;97857.44;;;21.97;48.23
41044;BME280;51680;49.806;18.774;2023-07-09T04:24:16;97852.19;;;22.13;48.42
41044;BME280;51680;49.806;18.774;2023-07-09T04:27:19;97844.63;;;22.26;48.14
41044;BME280;51680;49.806;18.774;2023-07-09T04:30:21;97853.22;;;22.46;47.46
41044;BME280;51680;49.806;18.774;2023-07-09T04:33:22;97849.63;;;22.63;47.37
41044;BME280;51680;49.806;18.774;2023-07-09T04:36:24;97855.00;;;22.79;47.21
41044;BME280;51680;49.806;18.774;2023-07-09T04:39:27;97858.38;;;22.97;47.27
41044;BME280;51680;49.806;18.774;2023-07-09T04:42:29;97857.78;;;23.19;46.75
41044;BME280;51680;49.806;18.774;2023-07-09T04:45:31;97858.28;;;23.46;46.60
41044;BME280;51680;49.806;18.774;2023-07-09T04:48:33;97856.28;;;23.56;46.56
41044;BME280;51680;49.806;18.774;2023-07-09T04:51:34;97857.75;;;23.83;45.78
41044;BME280;51680;49.806;18.774;2023-07-09T04:54:39;97867.09;;;24.11;45.81
41044;BME280;51680;49.806;18.774;2023-07-09T04:57:43;97865.53;;;24.24;45.26
41044;BME280;51680;49.806;18.774;2023-07-09T05:00:45;97857.69;;;24.31;45.31
41044;BME280;51680;49.806;18.774;2023-07-09T05:03:47;97857.28;;;24.50;45.23
41044;BME280;51680;49.806;18.774;2023-07-09T05:06:49;97862.59;;;24.66;45.26
41044;BME280;51680;49.806;18.774;2023-07-09T05:09:52;97863.47;;;24.89;45.24
41044;BME280;51680;49.806;18.774;2023-07-09T05:12:54;97861.19;;;25.08;44.86
41044;BME280;51680;49.806;18.774;2023-07-09T05:15:56;97865.00;;;25.14;45.14
41044;BME280;51680;49.806;18.774;2023-07-09T05:18:58;97869.94;;;25.25;44.94
41044;BME280;51680;49.806;18.774;2023-07-09T05:21:59;97872.09;;;25.29;45.17
41044;BME280;51680;49.806;18.774;2023-07-09T05:25:03;97877.53;;;25.44;44.12
41044;BME280;51680;49.806;18.774;2023-07-09T05:28:05;97877.41;;;25.37;44.16
41044;BME280;51680;49.806;18.774;2023-07-09T05:31:07;97874.59;;;25.53;44.59
41044;BME280;51680;49.806;18.774;2023-07-09T05:34:09;97869.88;;;25.78;45.12
41044;BME280;51680;49.806;18.774;2023-07-09T05:37:11;97866.72;;;25.97;44.33
41044;BME280;51680;49.806;18.774;2023-07-09T05:40:14;97874.06;;;26.17;44.16
41044;BME280;51680;49.806;18.774;2023-07-09T05:43:16;97866.94;;;26.39;43.70
41044;BME280;51680;49.806;18.774;2023-07-09T05:46:18;97869.44;;;26.55;43.26
41044;BME280;51680;49.806;18.774;2023-07-09T05:49:20;97872.03;;;26.77;43.24
41044;BME280;51680;49.806;18.774;2023-07-09T05:52:23;97869.09;;;27.08;43.00
41044;BME280;51680;49.806;18.774;2023-07-09T05:55:26;97875.22;;;27.37;42.60
41044;BME280;51680;49.806;18.774;2023-07-09T05:58:28;97880.66;;;27.44;42.20
41044;BME280;51680;49.806;18.774;2023-07-09T06:01:30;97881.63;;;27.57;42.69
41044;BME280;51680;49.806;18.774;2023-07-09T06:04:32;97883.94;;;27.60;42.31
41044;BME280;51680;49.806;18.774;2023-07-09T06:07:35;97881.81;;;27.98;42.65
41044;BME280;51680;49.806;18.774;2023-07-09T06:10:38;97884.00;;;28.43;41.28
41044;BME280;51680;49.806;18.774;2023-07-09T06:13:44;97879.59;;;28.63;40.65
41044;BME280;51680;49.806;18.774;2023-07-09T06:16:47;97890.94;;;28.99;40.32
41044;BME280;51680;49.806;18.774;2023-07-09T06:19:48;97887.03;;;29.08;39.03
41044;BME280;51680;49.806;18.774;2023-07-09T06:22:50;97882.28;;;29.10;39.00
41044;BME280;51680;49.806;18.774;2023-07-09T06:25:53;97887.72;;;29.23;39.43
41044;BME280;51680;49.806;18.774;2023-07-09T06:28:55;97890.25;;;29.50;39.33
41044;BME280;51680;49.806;18.774;2023-07-09T06:31:57;97879.59;;;29.83;38.86
41044;BME280;51680;49.806;18.774;2023-07-09T06:34:59;97882.47;;;30.34;39.09
41044;BME280;51680;49.806;18.774;2023-07-09T06:38:00;97880.13;;;30.76;37.80
41044;BME280;51680;49.806;18.774;2023-07-09T06:41:22;97879.16;;;31.21;38.02
41044;BME280;51680;49.806;18.774;2023-07-09T06:44:24;97885.66;;;31.76;36.87
41044;BME280;51680;49.806;18.774;2023-07-09T06:47:26;97886.34;;;32.20;34.83
41044;BME280;51680;49.806;18.774;2023-07-09T06:50:28;97885.66;;;32.31;34.32
41044;BME280;51680;49.806;18.774;2023-07-09T06:53:30;97887.03;;;32.58;33.89
41044;BME280;51680;49.806;18.774;2023-07-09T06:56:33;97883.56;;;32.69;33.37
41044;BME280;51680;49.806;18.774;2023-07-09T06:59:34;97880.38;;;32.97;33.30
41044;BME280;51680;49.806;18.774;2023-07-09T07:02:36;97890.13;;;33.34;33.73
41044;BME280;51680;49.806;18.774;2023-07-09T07:05:43;97877.97;;;33.66;32.88
41044;BME280;51680;49.806;18.774;2023-07-09T07:08:45;97877.25;;;34.00;33.21
41044;BME280;51680;49.806;18.774;2023-07-09T07:11:48;97880.03;;;34.34;32.78
41044;BME280;51680;49.806;18.774;2023-07-09T07:14:49;97884.50;;;34.63;32.99
41044;BME280;51680;49.806;18.774;2023-07-09T07:17:51;97881.06;;;34.91;32.74
41044;BME280;51680;49.806;18.774;2023-07-09T07:20:53;97882.22;;;35.06;31.71
41044;BME280;51680;49.806;18.774;2023-07-09T07:23:55;97879.00;;;35.21;30.94
41044;BME280;51680;49.806;18.774;2023-07-09T07:26:58;97875.28;;;35.38;30.52
41044;BME280;51680;49.806;18.774;2023-07-09T07:30:00;97875.66;;;35.30;30.29
41044;BME280;51680;49.806;18.774;2023-07-09T07:33:02;97878.19;;;35.48;31.05
41044;BME280;51680;49.806;18.774;2023-07-09T07:36:04;97871.34;;;35.46;30.65
41044;BME280;51680;49.806;18.774;2023-07-09T07:39:06;97876.09;;;35.39;30.13
41044;BME280;51680;49.806;18.774;2023-07-09T07:42:09;97869.53;;;35.51;29.56
41044;BME280;51680;49.806;18.774;2023-07-09T07:45:11;97876.81;;;35.62;29.97
41044;BME280;51680;49.806;18.774;2023-07-09T07:48:13;97874.97;;;35.79;30.11
41044;BME280;51680;49.806;18.774;2023-07-09T07:51:14;97874.66;;;35.92;29.22
41044;BME280;51680;49.806;18.774;2023-07-09T07:54:16;97881.25;;;36.13;29.87
41044;BME280;51680;49.806;18.774;2023-07-09T07:57:21;97879.44;;;36.35;28.89
41044;BME280;51680;49.806;18.774;2023-07-09T08:00:23;97875.13;;;36.55;28.68
41044;BME280;51680;49.806;18.774;2023-07-09T08:03:25;97871.06;;;36.74;28.23
41044;BME280;51680;49.806;18.774;2023-07-09T08:06:26;97876.09;;;36.82;29.05
41044;BME280;51680;49.806;18.774;2023-07-09T08:09:28;97878.88;;;36.87;27.94
41044;BME280;51680;49.806;18.774;2023-07-09T08:12:32;97879.69;;;36.88;27.06
41044;BME280;51680;49.806;18.774;2023-07-09T08:15:33;97878.81;;;36.82;27.69
41044;BME280;51680;49.806;18.774;2023-07-09T08:18:35;97883.97;;;36.62;27.84
41044;BME280;51680;49.806;18.774;2023-07-09T08:21:37;97886.25;;;36.70;28.34
41044;BME280;51680;49.806;18.774;2023-07-09T08:24:39;97878.88;;;36.87;27.74
41044;BME280;51680;49.806;18.774;2023-07-09T08:27:42;97876.03;;;36.99;27.29
41044;BME280;51680;49.806;18.774;2023-07-09T08:30:43;97866.34;;;36.86;26.51
41044;BME280;51680;49.806;18.774;2023-07-09T08:33:45;97875.63;;;36.90;27.95
41044;BME280;51680;49.806;18.774;2023-07-09T08:36:47;97859.50;;;37.05;27.29
41044;BME280;51680;49.806;18.774;2023-07-09T08:39:49;97868.50;;;37.27;26.57
41044;BME280;51680;49.806;18.774;2023-07-09T08:42:57;97859.97;;;37.45;24.83
41044;BME280;51680;49.806;18.774;2023-07-09T08:46:07;97860.59;;;37.52;25.89
41044;BME280;51680;49.806;18.774;2023-07-09T08:49:14;97863.78;;;37.44;26.10
41044;BME280;51680;49.806;18.774;2023-07-09T08:52:26;97868.16;;;37.45;26.10
41044;BME280;51680;49.806;18.774;2023-07-09T08:55:30;97858.78;;;37.58;25.32
41044;BME280;51680;49.806;18.774;2023-07-09T08:58:43;97862.47;;;37.73;24.90
41044;BME280;51680;49.806;18.774;2023-07-09T09:01:50;97859.25;;;37.81;24.25
41044;BME280;51680;49.806;18.774;2023-07-09T09:04:52;97862.63;;;37.88;25.06
41044;BME280;51680;49.806;18.774;2023-07-09T09:07:56;97856.16;;;37.99;24.90
41044;BME280;51680;49.806;18.774;2023-07-09T09:11:14;97860.69;;;38.16;23.10
41044;BME280;51680;49.806;18.774;2023-07-09T09:14:26;97865.66;;;38.23;24.55
41044;BME280;51680;49.806;18.774;2023-07-09T09:17:33;97866.28;;;38.36;24.02
41044;BME280;51680;49.806;18.774;2023-07-09T09:20:35;97864.22;;;38.48;23.54
41044;BME280;51680;49.806;18.774;2023-07-09T09:23:39;97862.13;;;38.60;23.91
41044;BME280;51680;49.806;18.774;2023-07-09T09:26:43;97867.03;;;38.63;23.67
41044;BME280;51680;49.806;18.774;2023-07-09T09:29:46;97861.03;;;38.61;23.66
41044;BME280;51680;49.806;18.774;2023-07-09T09:32:52;97864.31;;;38.68;22.57
41044;BME280;51680;49.806;18.774;2023-07-09T09:36:01;97865.22;;;38.78;21.35
41044;BME280;51680;49.806;18.774;2023-07-09T09:39:03;97868.59;;;38.90;23.41
41044;BME280;51680;49.806;18.774;2023-07-09T09:42:10;97864.97;;;38.85;22.99
41044;BME280;51680;49.806;18.774;2023-07-09T09:45:16;97874.88;;;38.96;22.85
41044;BME280;51680;49.806;18.774;2023-07-09T09:48:20;97873.53;;;39.03;23.64
41044;BME280;51680;49.806;18.774;2023-07-09T09:51:28;97871.66;;;39.09;22.87
41044;BME280;51680;49.806;18.774;2023-07-09T09:54:31;97865.69;;;39.12;21.90
41044;BME280;51680;49.806;18.774;2023-07-09T09:57:32;97868.09;;;39.03;21.25
41044;BME280;51680;49.806;18.774;2023-07-09T10:00:36;97863.16;;;38.95;21.28
41044;BME280;51680;49.806;18.774;2023-07-09T10:03:38;97867.69;;;38.80;21.13
41044;BME280;51680;49.806;18.774;2023-07-09T10:06:42;97865.75;;;38.75;21.34
41044;BME280;51680;49.806;18.774;2023-07-09T10:09:47;97858.22;;;38.51;21.46
41044;BME280;51680;49.806;18.774;2023-07-09T10:12:52;97863.19;;;38.54;21.28
41044;BME280;51680;49.806;18.774;2023-07-09T10:16:05;97862.84;;;38.50;20.67
41044;BME280;51680;49.806;18.774;2023-07-09T10:19:16;97861.47;;;38.48;21.05
41044;BME280;51680;49.806;18.774;2023-07-09T10:22:38;97872.13;;;38.44;22.01
41044;BME280;51680;49.806;18.774;2023-07-09T10:25:46;97866.41;;;38.51;21.17
41044;BME280;51680;49.806;18.774;2023-07-09T10:29:07;97853.13;;;38.28;19.12
41044;BME280;51680;49.806;18.774;2023-07-09T10:32:27;97848.88;;;37.52;21.87
41044;BME280;51680;49.806;18.774;2023-07-09T10:35:37;97854.38;;;37.30;22.24
41044;BME280;51680;49.806;18.774;2023-07-09T10:38:47;97845.63;;;37.28;21.39
41044;BME280;51680;49.806;18.774;2023-07-09T10:41:51;97839.59;;;37.26;21.72
41044;BME280;51680;49.806;18.774;2023-07-09T10:45:02;97835.25;;;36.82;21.47
41044;BME280;51680;49.806;18.774;2023-07-09T10:48:12;97835.19;;;36.77;21.88
41044;BME280;51680;49.806;18.774;2023-07-09T10:51:21;97834.66;;;36.80;22.51
41044;BME280;51680;49.806;18.774;2023-07-09T10:54:29;97829.81;;;36.82;21.96
41044;BME280;51680;49.806;18.774;2023-07-09T10:57:41;97826.81;;;36.84;22.33
41044;BME280;51680;49.806;18.774;2023-07-09T11:00:45;97835.06;;;36.67;21.20
41044;BME280;51680;49.806;18.774;2023-07-09T11:03:50;97843.09;;;36.08;21.64
41044;BME280;51680;49.806;18.774;2023-07-09T11:06:56;97831.97;;;35.32;22.65
41044;BME280;51680;49.806;18.774;2023-07-09T11:10:02;97832.59;;;35.11;23.13
41044;BME280;51680;49.806;18.774;2023-07-09T11:13:11;97823.41;;;35.12;23.17
41044;BME280;51680;49.806;18.774;2023-07-09T11:16:19;97827.22;;;35.27;23.69
41044;BME280;51680;49.806;18.774;2023-07-09T11:19:23;97824.00;;;35.42;24.38
41044;BME280;51680;49.806;18.774;2023-07-09T11:22:27;97818.72;;;35.52;23.91
41044;BME280;51680;49.806;18.774;2023-07-09T11:25:41;97822.53;;;35.67;22.67
41044;BME280;51680;49.806;18.774;2023-07-09T11:28:48;97819.25;;;35.37;24.03
41044;BME280;51680;49.806;18.774;2023-07-09T11:31:52;97820.66;;;35.40;24.41
41044;BME280;51680;49.806;18.774;2023-07-09T11:35:06;97811.06;;;35.49;23.68
41044;BME280;51680;49.806;18.774;2023-07-09T11:38:11;97809.19;;;35.49;24.22
41044;BME280;51680;49.806;18.774;2023-07-09T11:41:41;97809.25;;;35.54;24.25
41044;BME280;51680;49.806;18.774;2023-07-09T11:44:46;97805.56;;;35.60;24.39
41044;BME280;51680;49.806;18.774;2023-07-09T11:47:51;97803.91;;;35.59;23.73
41044;BME280;51680;49.806;18.774;2023-07-09T11:50:59;97803.91;;;35.59;24.08
41044;BME280;51680;49.806;18.774;2023-07-09T11:54:02;97800.63;;;35.57;24.23
41044;BME280;51680;49.806;18.774;2023-07-09T11:57:11;97800.88;;;35.56;24.18
41044;BME280;51680;49.806;18.774;2023-07-09T12:00:14;97800.63;;;35.57;24.30
41044;BME280;51680;49.806;18.774;2023-07-09T12:03:20;97804.25;;;35.63;24.74
41044;BME280;51680;49.806;18.774;2023-07-09T12:06:28;97797.25;;;35.67;24.65
41044;BME280;51680;49.806;18.774;2023-07-09T12:09:32;97795.38;;;35.67;24.30
41044;BME280;51680;49.806;18.774;2023-07-09T12:12:34;97805.41;;;35.67;24.36
41044;BME280;51680;49.806;18.774;2023-07-09T12:15:38;97797.81;;;35.52;25.22
41044;BME280;51680;49.806;18.774;2023-07-09T12:18:40;97788.75;;;35.47;24.30
41044;BME280;51680;49.806;18.774;2023-07-09T12:22:06;97792.69;;;35.39;24.12
41044;BME280;51680;49.806;18.774;2023-07-09T12:25:19;97787.25;;;35.39;22.94
41044;BME280;51680;49.806;18.774;2023-07-09T12:28:22;97785.34;;;35.40;24.16
41044;BME280;51680;49.806;18.774;2023-07-09T12:31:26;97775.72;;;35.32;23.47
41044;BME280;51680;49.806;18.774;2023-07-09T12:34:30;97778.69;;;35.31;23.88
41044;BME280;51680;49.806;18.774;2023-07-09T12:37:33;97779.75;;;35.18;24.06
41044;BME280;51680;49.806;18.774;2023-07-09T12:40:35;97781.44;;;35.19;24.39
41044;BME280;51680;49.806;18.774;2023-07-09T12:43:38;97780.03;;;35.17;24.08
41044;BME280;51680;49.806;18.774;2023-07-09T12:46:39;97766.09;;;35.13;23.76
41044;BME280;51680;49.806;18.774;2023-07-09T12:49:43;97761.06;;;35.05;23.71
41044;BME280;51680;49.806;18.774;2023-07-09T12:52:48;97765.72;;;34.93;24.52
41044;BME280;51680;49.806;18.774;2023-07-09T12:55:50;97759.72;;;34.91;24.27
41044;BME280;51680;49.806;18.774;2023-07-09T12:58:56;97754.84;;;34.93;24.69
41044;BME280;51680;49.806;18.774;2023-07-09T13:02:01;97762.34;;;34.86;24.03
41044;BME280;51680;49.806;18.774;2023-07-09T13:05:06;97757.25;;;34.90;24.21
41044;BME280;51680;49.806;18.774;2023-07-09T13:08:13;97760.69;;;34.85;24.85
41044;BME280;51680;49.806;18.774;2023-07-09T13:11:16;97758.56;;;34.76;24.90
41044;BME280;51680;49.806;18.774;2023-07-09T13:14:21;97762.25;;;34.70;24.73
41044;BME280;51680;49.806;18.774;2023-07-09T13:17:42;97750.56;;;34.69;24.95
41044;BME280;51680;49.806;18.774;2023-07-09T13:20:45;97748.78;;;34.75;24.50
41044;BME280;51680;49.806;18.774;2023-07-09T13:23:50;97751.25;;;34.76;24.53
41044;BME280;51680;49.806;18.774;2023-07-09T13:26:52;97751.16;;;34.71;24.45
41044;BME280;51680;49.806;18.774;2023-07-09T13:29:54;97754.47;;;34.62;24.55
41044;BME280;51680;49.806;18.774;2023-07-09T13:32:56;97751.31;;;34.53;25.06
41044;BME280;51680;49.806;18.774;2023-07-09T13:35:57;97752.97;;;34.54;25.51
41044;BME280;51680;49.806;18.774;2023-07-09T13:39:00;97749.78;;;34.57;25.31
41044;BME280;51680;49.806;18.774;2023-07-09T13:42:07;97749.78;;;34.57;24.00
41044;BME280;51680;49.806;18.774;2023-07-09T13:45:20;97732.91;;;34.55;24.61
41044;BME280;51680;49.806;18.774;2023-07-09T13:48:43;97743.19;;;34.53;24.01
41044;BME280;51680;49.806;18.774;2023-07-09T13:51:48;97740.38;;;34.48;24.22
41044;BME280;51680;49.806;18.774;2023-07-09T13:54:51;97741.34;;;34.42;24.72
41044;BME280;51680;49.806;18.774;2023-07-09T13:57:53;97743.09;;;34.37;25.09
41044;BME280;51680;49.806;18.774;2023-07-09T14:00:58;97731.31;;;34.31;25.41
41044;BME280;51680;49.806;18.774;2023-07-09T14:04:04;97733.78;;;34.21;24.82
41044;BME280;51680;49.806;18.774;2023-07-09T14:07:08;97726.38;;;34.17;24.26
41044;BME280;51680;49.806;18.774;2023-07-09T14:10:15;97729.09;;;34.17;24.78
41044;BME280;51680;49.806;18.774;2023-07-09T14:13:19;97741.00;;;34.16;24.69
41044;BME280;51680;49.806;18.774;2023-07-09T14:16:22;97724.38;;;34.12;24.54
41044;BME280;51680;49.806;18.774;2023-07-09T14:19:25;97728.13;;;34.11;24.45
41044;BME280;51680;49.806;18.774;2023-07-09T14:22:32;97735.69;;;34.09;24.16
41044;BME280;51680;49.806;18.774;2023-07-09T14:25:36;97733.22;;;34.08;24.59
41044;BME280;51680;49.806;18.774;2023-07-09T14:28:38;97724.47;;;34.06;24.84
41044;BME280;51680;49.806;18.774;2023-07-09T14:31:40;97736.63;;;34.03;25.41
41044;BME280;51680;49.806;18.774;2023-07-09T14:34:42;97735.47;;;33.99;25.08
41044;BME280;51680;49.806;18.774;2023-07-09T14:37:45;97720.97;;;33.94;25.38
41044;BME280;51680;49.806;18.774;2023-07-09T14:40:50;97718.72;;;33.91;24.98
41044;BME280;51680;49.806;18.774;2023-07-09T14:43:58;97721.69;;;33.89;25.62
41044;BME280;51680;49.806;18.774;2023-07-09T14:47:00;97720.28;;;33.87;25.62
41044;BME280;51680;49.806;18.774;2023-07-09T14:50:02;97711.22;;;33.81;25.93
41044;BME280;51680;49.806;18.774;2023-07-09T14:53:10;97712.84;;;33.82;26.10
41044;BME280;51680;49.806;18.774;2023-07-09T14:56:33;97717.06;;;33.78;25.72
41044;BME280;51680;49.806;18.774;2023-07-09T14:59:35;97712.13;;;33.75;25.99
41044;BME280;51680;49.806;18.774;2023-07-09T15:02:39;97718.13;;;33.77;25.70
41044;BME280;51680;49.806;18.774;2023-07-09T15:05:41;97709.56;;;33.80;25.92
41044;BME280;51680;49.806;18.774;2023-07-09T15:08:43;97706.38;;;33.83;26.05
41044;BME280;51680;49.806;18.774;2023-07-09T15:11:48;97700.72;;;33.85;26.11
41044;BME280;51680;49.806;18.774;2023-07-09T15:14:50;97699.88;;;33.84;26.02
41044;BME280;51680;49.806;18.774;2023-07-09T15:17:52;97707.88;;;33.79;26.10
41044;BME280;51680;49.806;18.774;2023-07-09T15:20:56;97710.00;;;33.77;26.31
41044;BME280;51680;49.806;18.774;2023-07-09T15:23:58;97705.63;;;33.76;26.24
41044;BME280;51680;49.806;18.774;2023-07-09T15:27:01;97697.16;;;33.73;26.14
41044;BME280;51680;49.806;18.774;2023-07-09T15:30:12;97693.03;;;33.70;26.30
41044;BME280;51680;49.806;18.774;2023-07-09T15:33:16;97695.16;;;33.68;26.95
41044;BME280;51680;49.806;18.774;2023-07-09T15:36:18;97698.09;;;33.67;26.93
41044;BME280;51680;49.806;18.774;2023-07-09T15:39:20;97698.47;;;33.70;26.69
41044;BME280;51680;49.806;18.774;2023-07-09T15:42:23;97684.91;;;33.70;26.70
41044;BME280;51680;49.806;18.774;2023-07-09T15:45:25;97687.63;;;33.70;26.53
41044;BME280;51680;49.806;18.774;2023-07-09T15:48:31;97692.56;;;33.73;26.79
41044;BME280;51680;49.806;18.774;2023-07-09T15:51:33;97687.03;;;33.68;26.82
41044;BME280;51680;49.806;18.774;2023-07-09T15:54:35;97680.53;;;33.69;26.48
41044;BME280;51680;49.806;18.774;2023-07-09T15:57:57;97677.25;;;33.67;25.97
41044;BME280;51680;49.806;18.774;2023-07-09T16:00:59;97675.00;;;33.64;26.76
41044;BME280;51680;49.806;18.774;2023-07-09T16:04:01;97668.16;;;33.62;27.04